You are not logged in, Click here to log in
ICAO: KRSW Country: 美国佛罗里达州利县迈尔斯堡以南约16公里处的一座民用机场,归利县政府所有,并由利县港务局运营管理
Latitude: 26.5362 Longitude: -81.7552
Total Arrivals: 2 Total Departures: 2
Latest Arrival: FS98 (MUVR-KRSW)Robert. Chou Latest Departure: UA0527 (KRSW-KIAH)Robert. Chou
Scenery:
METAR : KRSW 210753Z AUTO 10004KT 10SM CLR 25/24 A3004 RMK AO2 SLP171 T02500239

迈尔斯堡西南佛罗里达国际机场 RSW